PBFO2: Black Fork Below Big Creek Nr Page, OK
Data processed at Mon 13Mar2023 04:25 GMT
All information presented herein is the property of the government of the United States of America and may be revised or deleted at any time without prior notice.
Dissemination of this information without the expressed written consent of the Public Affairs Office, Tulsa District U.S. Army Corps of Engineers is strictly prohibited.
These data are gathered electronically and, as presented, have not undergone any form of quality control. These data are not guaranteed to be valid or correct.
Go to home page.
Go to station list.
Downstream station:
Previous Day
Next Day
Current Day
SHEF ID: PBFO2 Black Fork below Big Creek nr Pa
STATION TYPE:
PRECIP STAGE RIV-FLOW
in ft cfs
Ccp-Rev Ccp-Rev Ccp-Rev
(US/Central)
03/12 00:00 0.01 6.59 380
03/12 01:00 0.00 6.59 380
03/12 03:00 0.00 6.66 403
03/12 04:00 0.00 6.82 459
03/12 05:00 0.00 6.91 492
03/12 06:00 0.00 6.92 496
03/12 07:00 0.00 6.89 484
03/12 08:00 0.00 6.85 470
03/12 09:00 0.00 6.82 459
03/12 10:00 0.00 6.77 441
03/12 11:00 0.00 6.75 434
03/12 12:00 0.00 6.70 417
03/12 13:00 0.00 6.68 410
03/12 14:00 0.00 6.66 403
03/12 15:00 0.00 6.63 393
03/12 16:00 0.00 6.61 387
03/12 17:00 0.00 6.58 377
03/12 18:00 0.00 6.56 371
03/12 19:00 0.00 6.54 364
03/12 20:00 0.00 6.52 358
03/12 21:00 0.00 6.50 352
03/12 22:00 0.00 6.48 346
03/12 23:00 0.01 6.46 340